createdAt,value
2023-09-04T00:00:01.026Z,74.66
2023-09-04T00:02:47.756Z,74.68
2023-09-04T00:05:36.570Z,74.89
2023-09-04T00:08:22.671Z,74.80
2023-09-04T00:11:08.548Z,75.02
2023-09-04T00:13:54.331Z,74.91
2023-09-04T00:16:40.467Z,74.68
2023-09-04T00:19:26.274Z,74.94
2023-09-04T00:22:11.476Z,74.91
2023-09-04T00:24:56.897Z,75.14
2023-09-04T00:27:42.268Z,75.29
2023-09-04T00:30:27.721Z,75.31
2023-09-04T00:33:13.067Z,75.10
2023-09-04T00:35:58.565Z,75.29
2023-09-04T00:38:44.009Z,75.00
2023-09-04T00:41:29.369Z,74.70
2023-09-04T00:44:14.898Z,75.14
2023-09-04T00:47:00.697Z,74.98
2023-09-04T00:49:47.998Z,75.11
2023-09-04T00:52:34.117Z,76.30
2023-09-04T00:55:19.990Z,75.34
2023-09-04T00:58:05.740Z,75.43
2023-09-04T01:00:51.406Z,75.07
2023-09-04T01:03:37.110Z,75.25
2023-09-04T01:06:22.547Z,75.46
2023-09-04T01:09:10.229Z,75.47
2023-09-04T01:12:11.532Z,75.48
2023-09-04T01:15:00.042Z,75.47
2023-09-04T01:17:46.621Z,75.47
2023-09-04T01:20:33.256Z,75.68
2023-09-04T01:23:18.920Z,75.46
2023-09-04T01:26:13.332Z,75.64
2023-09-04T01:29:43.988Z,76.17
2023-09-04T01:32:37.507Z,75.92
2023-09-04T01:35:24.411Z,76.02
2023-09-04T01:38:10.952Z,75.99
2023-09-04T01:40:56.993Z,76.02
2023-09-04T01:43:42.452Z,76.16
2023-09-04T01:46:27.955Z,75.87
2023-09-04T01:49:13.353Z,76.33
2023-09-04T01:52:01.332Z,76.13
2023-09-04T01:54:46.950Z,76.53
2023-09-04T01:57:32.269Z,76.77
2023-09-04T02:00:18.022Z,76.35
2023-09-04T02:03:03.949Z,76.29
2023-09-04T02:05:49.457Z,76.42
2023-09-04T02:08:35.409Z,76.40
2023-09-04T02:11:20.729Z,76.57
2023-09-04T02:14:07.821Z,76.64
2023-09-04T02:16:53.255Z,76.40
2023-09-04T02:19:38.642Z,76.43
2023-09-04T02:22:24.200Z,76.82
2023-09-04T02:25:09.480Z,76.91
2023-09-04T02:27:55.125Z,76.73
2023-09-04T02:30:40.766Z,76.69
2023-09-04T02:33:26.123Z,76.87
2023-09-04T02:36:12.779Z,77.35
2023-09-04T02:38:58.278Z,76.83
2023-09-04T02:41:43.630Z,77.49
2023-09-04T02:44:30.504Z,76.95
2023-09-04T02:47:16.185Z,77.49
2023-09-04T02:50:01.629Z,77.11
2023-09-04T02:52:46.881Z,77.35
2023-09-04T02:55:33.302Z,77.27
2023-09-04T02:58:18.704Z,77.32
2023-09-04T03:01:04.173Z,77.47
2023-09-04T03:03:50.601Z,77.36
2023-09-04T03:06:35.941Z,77.87
2023-09-04T03:09:21.340Z,77.96
2023-09-04T03:12:07.589Z,77.47
2023-09-04T03:15:05.680Z,78.09
2023-09-04T03:17:51.217Z,78.00
2023-09-04T03:20:36.536Z,78.29
2023-09-04T03:23:22.476Z,77.97
2023-09-04T03:26:08.207Z,77.39
2023-09-04T03:28:53.794Z,77.80
2023-09-04T03:31:39.820Z,77.82
2023-09-04T03:34:25.734Z,78.23
2023-09-04T03:37:11.445Z,77.67
2023-09-04T03:40:23.541Z,78.11
2023-09-04T03:43:09.151Z,78.46
2023-09-04T03:45:54.437Z,78.93
2023-09-04T03:48:39.836Z,77.96
2023-09-04T03:51:25.365Z,78.05
2023-09-04T03:54:11.027Z,77.76
2023-09-04T03:56:56.679Z,78.08
2023-09-04T03:59:42.006Z,77.61
2023-09-04T04:02:27.814Z,77.81
2023-09-04T04:05:15.210Z,77.91
2023-09-04T04:08:00.869Z,78.47
2023-09-04T04:10:46.460Z,77.71
2023-09-04T04:13:32.217Z,78.26
2023-09-04T04:16:17.868Z,78.21
2023-09-04T04:19:03.609Z,78.41
2023-09-04T04:21:48.958Z,77.77
2023-09-04T04:24:36.541Z,77.80
2023-09-04T04:27:21.991Z,78.44
2023-09-04T04:30:08.065Z,78.31
2023-09-04T04:32:53.973Z,78.52
2023-09-04T04:35:40.535Z,77.99
2023-09-04T04:38:26.340Z,78.21
2023-09-04T04:41:12.303Z,78.00
2023-09-04T04:43:58.089Z,78.32
2023-09-04T04:46:43.676Z,78.44
2023-09-04T04:49:29.035Z,79.13
2023-09-04T04:52:14.396Z,78.55
2023-09-04T04:54:59.863Z,79.08
2023-09-04T04:57:45.234Z,78.53
2023-09-04T05:00:30.709Z,78.85
2023-09-04T05:03:16.299Z,78.96
2023-09-04T05:06:03.300Z,79.23
2023-09-04T05:08:49.255Z,79.52
2023-09-04T05:11:36.770Z,79.59
2023-09-04T05:14:23.974Z,80.06
2023-09-04T05:17:09.414Z,79.64
2023-09-04T05:19:55.822Z,79.71
2023-09-04T05:22:41.160Z,80.12
2023-09-04T05:25:26.691Z,80.00
2023-09-04T05:28:13.334Z,80.75
2023-09-04T05:31:05.059Z,80.73
2023-09-04T05:33:50.982Z,80.55
2023-09-04T05:36:36.700Z,81.19
2023-09-04T05:39:22.207Z,80.63
2023-09-04T05:42:07.704Z,80.15
2023-09-04T05:44:53.105Z,81.22
2023-09-04T05:47:38.514Z,80.86
2023-09-04T05:50:23.950Z,80.50
2023-09-04T05:53:09.557Z,80.90
2023-09-04T05:56:10.922Z,80.47
2023-09-04T05:58:57.814Z,80.75
2023-09-04T06:01:43.645Z,80.57
2023-09-04T06:04:29.268Z,80.47
2023-09-04T06:07:16.131Z,80.58
2023-09-04T06:10:01.699Z,80.88
2023-09-04T06:12:47.054Z,80.70
2023-09-04T06:15:32.493Z,80.79
2023-09-04T06:18:18.489Z,80.66
2023-09-04T06:21:04.230Z,81.09
2023-09-04T06:23:49.620Z,80.22
2023-09-04T06:26:34.972Z,81.03
2023-09-04T06:29:20.592Z,80.18
2023-09-04T06:32:06.612Z,80.45
2023-09-04T06:34:52.173Z,80.94
2023-09-04T06:37:37.573Z,81.03
2023-09-04T06:40:24.026Z,80.82
2023-09-04T06:43:10.243Z,80.34
2023-09-04T06:45:55.899Z,81.01
2023-09-04T06:48:41.215Z,80.37
2023-09-04T06:51:26.864Z,80.42
2023-09-04T06:54:12.560Z,80.63
2023-09-04T06:56:57.835Z,79.95
2023-09-04T06:59:43.365Z,79.46
2023-09-04T07:02:28.763Z,80.05
2023-09-04T07:05:14.185Z,79.86
2023-09-04T07:07:59.785Z,79.29
2023-09-04T07:10:45.208Z,79.11
2023-09-04T07:13:30.655Z,78.43
2023-09-04T07:16:34.637Z,79.24
2023-09-04T07:19:22.554Z,78.34
2023-09-04T07:22:07.965Z,78.75
2023-09-04T07:24:53.983Z,77.39
2023-09-04T07:27:39.570Z,77.19
2023-09-04T07:30:24.938Z,76.82
2023-09-04T07:33:10.462Z,76.93
2023-09-04T07:35:56.126Z,76.64
2023-09-04T07:38:42.309Z,75.82
2023-09-04T07:41:27.966Z,75.40
2023-09-04T07:44:13.551Z,75.36
2023-09-04T07:46:59.125Z,75.21
2023-09-04T07:49:45.011Z,75.14
2023-09-04T07:52:30.321Z,74.66
2023-09-04T07:55:16.241Z,74.23
2023-09-04T07:58:01.810Z,73.65
2023-09-04T08:00:52.271Z,73.51
2023-09-04T08:03:37.708Z,72.86
2023-09-04T08:06:23.275Z,72.79
2023-09-04T08:09:08.514Z,72.58
2023-09-04T08:11:54.130Z,72.34
2023-09-04T08:14:39.607Z,71.99
2023-09-04T08:17:27.309Z,71.62
2023-09-04T08:20:13.695Z,71.12
2023-09-04T08:22:59.126Z,70.91
2023-09-04T08:25:44.533Z,71.01
2023-09-04T08:28:30.249Z,70.44
2023-09-04T08:31:15.878Z,69.93
2023-09-04T08:34:03.439Z,69.50
2023-09-04T08:36:49.193Z,68.41
2023-09-04T08:39:34.820Z,69.21
2023-09-04T08:42:20.665Z,68.75
2023-09-04T08:45:10.044Z,68.37
2023-09-04T08:47:56.550Z,68.35
2023-09-04T08:50:43.339Z,67.64
2023-09-04T08:53:29.051Z,67.45
2023-09-04T08:56:16.369Z,67.08
2023-09-04T08:59:01.688Z,66.85
2023-09-04T09:01:47.691Z,66.45
2023-09-04T09:04:34.416Z,66.94
2023-09-04T09:07:24.574Z,65.76
2023-09-04T09:10:15.320Z,66.19
2023-09-04T09:13:00.937Z,65.77
2023-09-04T09:15:46.323Z,65.82
2023-09-04T09:18:44.078Z,65.14
2023-09-04T09:21:36.159Z,65.01
2023-09-04T09:24:21.780Z,65.29
2023-09-04T09:27:07.213Z,64.60
2023-09-04T09:29:53.360Z,64.34
2023-09-04T09:32:38.945Z,64.24
2023-09-04T09:35:24.400Z,63.80
2023-09-04T09:38:10.093Z,63.76
2023-09-04T09:40:56.601Z,63.48
2023-09-04T09:43:42.798Z,61.17
2023-09-04T09:46:29.811Z,61.78
2023-09-04T09:49:15.189Z,62.22
2023-09-04T09:52:00.565Z,61.87
2023-09-04T09:54:48.337Z,61.04
2023-09-04T09:57:36.314Z,61.41
2023-09-04T10:00:21.936Z,61.97
2023-09-04T10:03:08.061Z,61.43
2023-09-04T10:05:56.075Z,61.43
2023-09-04T10:08:44.892Z,61.33
2023-09-04T10:11:33.929Z,59.85
2023-09-04T10:14:29.373Z,59.24
2023-09-04T10:17:37.802Z,58.68
2023-09-04T10:20:23.838Z,56.99
2023-09-04T10:23:14.628Z,60.12
2023-09-04T10:26:12.904Z,59.59
2023-09-04T10:29:09.899Z,59.12
2023-09-04T10:31:56.910Z,60.31
2023-09-04T10:34:42.684Z,59.99
2023-09-04T10:37:32.193Z,59.86
2023-09-04T10:40:18.922Z,59.10
2023-09-04T10:43:05.033Z,59.25
2023-09-04T10:46:14.926Z,57.92
2023-09-04T10:49:00.646Z,59.44
2023-09-04T10:51:48.822Z,59.41
2023-09-04T10:54:34.672Z,59.11
2023-09-04T10:57:23.299Z,58.94
2023-09-04T11:00:09.612Z,58.33
2023-09-04T11:02:55.418Z,58.19
2023-09-04T11:06:06.397Z,56.17
2023-09-04T11:08:52.722Z,58.01
2023-09-04T11:11:39.764Z,57.51
2023-09-04T11:14:33.955Z,56.79
2023-09-04T11:17:31.252Z,56.48
2023-09-04T11:20:18.459Z,57.53
2023-09-04T11:23:05.108Z,57.02
2023-09-04T11:25:53.999Z,57.34
2023-09-04T11:28:40.625Z,56.86
2023-09-04T11:31:28.234Z,56.60
2023-09-04T11:34:23.558Z,55.52
2023-09-04T11:37:09.319Z,56.70
2023-09-04T11:40:03.752Z,56.41
2023-09-04T11:42:51.995Z,56.29
2023-09-04T11:45:37.552Z,55.95
2023-09-04T11:48:24.946Z,55.36
2023-09-04T11:51:11.539Z,52.09
2023-09-04T11:53:56.907Z,55.11
2023-09-04T11:56:42.364Z,55.03
2023-09-04T11:59:27.941Z,54.98
2023-09-04T12:02:13.845Z,54.97
2023-09-04T12:05:01.168Z,53.76
2023-09-04T12:07:47.656Z,53.95
2023-09-04T12:10:38.683Z,53.72
2023-09-04T12:13:24.642Z,54.08
2023-09-04T12:16:11.566Z,53.93
2023-09-04T12:18:57.478Z,54.17
2023-09-04T12:21:43.120Z,53.58
2023-09-04T12:24:29.072Z,53.55
2023-09-04T12:27:15.345Z,53.29
2023-09-04T12:30:00.980Z,53.15
2023-09-04T12:32:46.738Z,51.93
2023-09-04T12:35:38.311Z,50.95
2023-09-04T12:38:25.247Z,51.49
2023-09-04T12:41:10.575Z,51.92
2023-09-04T12:43:56.094Z,51.32
2023-09-04T12:46:41.567Z,51.75
2023-09-04T12:49:27.142Z,51.04
2023-09-04T12:52:12.540Z,51.02
2023-09-04T12:54:58.309Z,50.50
2023-09-04T12:57:46.792Z,49.19
2023-09-04T13:00:32.917Z,48.55
2023-09-04T13:03:18.529Z,48.72
2023-09-04T13:06:04.187Z,49.59
2023-09-04T13:08:49.919Z,49.42
2023-09-04T13:11:35.989Z,48.95
2023-09-04T13:14:21.638Z,48.51
2023-09-04T13:17:07.026Z,48.39
2023-09-04T13:19:53.175Z,46.93
2023-09-04T13:22:40.565Z,47.99
2023-09-04T13:25:26.341Z,45.73
2023-09-04T13:28:11.891Z,45.09
2023-09-04T13:30:57.430Z,47.19
2023-09-04T13:33:43.035Z,46.14
2023-09-04T13:36:28.574Z,46.65
2023-09-04T13:39:14.087Z,47.36
2023-09-04T13:41:59.619Z,46.98
2023-09-04T13:44:44.961Z,46.97
2023-09-04T13:47:30.432Z,47.08
2023-09-04T13:50:16.161Z,47.29
2023-09-04T13:53:01.681Z,46.97
2023-09-04T13:55:49.128Z,46.94
2023-09-04T13:58:34.345Z,40.67
2023-09-04T14:01:20.155Z,46.60
2023-09-04T14:04:05.867Z,45.92
2023-09-04T14:06:51.434Z,46.22
2023-09-04T14:09:38.223Z,46.30
2023-09-04T14:12:24.066Z,46.78
2023-09-04T14:15:10.133Z,46.68
2023-09-04T14:17:55.566Z,46.69
2023-09-04T14:20:43.139Z,46.56
2023-09-04T14:23:28.515Z,46.55
2023-09-04T14:26:14.027Z,46.71
2023-09-04T14:28:59.280Z,46.46
2023-09-04T14:31:45.020Z,46.41
2023-09-04T14:34:30.680Z,46.49
2023-09-04T14:37:18.199Z,46.05
2023-09-04T14:40:07.481Z,46.09
2023-09-04T14:42:52.906Z,45.90
2023-09-04T14:45:38.599Z,45.58
2023-09-04T14:48:24.722Z,45.97
2023-09-04T14:51:10.237Z,45.49
2023-09-04T14:53:55.986Z,45.43
2023-09-04T14:56:41.047Z,44.80
2023-09-04T14:59:26.552Z,44.73
2023-09-04T15:02:12.108Z,44.04
2023-09-04T15:04:57.598Z,43.68
2023-09-04T15:07:44.756Z,43.50
2023-09-04T15:10:30.104Z,43.56
2023-09-04T15:13:15.504Z,43.54
2023-09-04T15:16:05.250Z,42.76
2023-09-04T15:18:50.909Z,43.90
2023-09-04T15:21:36.343Z,43.88
2023-09-04T15:24:21.739Z,44.23
2023-09-04T15:27:07.234Z,44.72
2023-09-04T15:29:53.814Z,44.94
2023-09-04T15:32:40.453Z,44.96
2023-09-04T15:35:25.910Z,44.97
2023-09-04T15:38:11.589Z,45.43
2023-09-04T15:40:57.262Z,45.40
2023-09-04T15:43:42.618Z,45.81
2023-09-04T15:46:28.273Z,45.45
2023-09-04T15:49:13.532Z,45.99
2023-09-04T15:51:59.093Z,46.17
2023-09-04T15:54:44.587Z,46.41
2023-09-04T15:57:30.194Z,46.45
2023-09-04T16:00:15.874Z,46.63
2023-09-04T16:03:01.510Z,46.91
2023-09-04T16:05:47.795Z,46.81
2023-09-04T16:08:33.324Z,46.81
2023-09-04T16:11:18.804Z,47.11
2023-09-04T16:14:04.382Z,47.16
2023-09-04T16:16:49.779Z,47.30
2023-09-04T16:19:35.249Z,47.32
2023-09-04T16:22:21.463Z,47.56
2023-09-04T16:25:07.670Z,47.69
2023-09-04T16:27:53.205Z,47.73
2023-09-04T16:30:38.967Z,47.84
2023-09-04T16:33:24.745Z,48.07
2023-09-04T16:36:10.371Z,47.90
2023-09-04T16:38:55.869Z,47.98
2023-09-04T16:41:41.506Z,48.09
2023-09-04T16:44:26.929Z,48.16
2023-09-04T16:47:12.569Z,48.05
2023-09-04T16:49:58.113Z,48.14
2023-09-04T16:52:43.499Z,48.29
2023-09-04T16:55:29.141Z,48.21
2023-09-04T16:58:14.503Z,48.28
2023-09-04T17:01:01.240Z,48.37
2023-09-04T17:03:46.838Z,48.44
2023-09-04T17:06:32.449Z,48.61
2023-09-04T17:09:18.085Z,48.75
2023-09-04T17:12:03.774Z,49.04
2023-09-04T17:14:49.504Z,49.06
2023-09-04T17:17:34.923Z,49.26
2023-09-04T17:20:20.311Z,49.45
2023-09-04T17:23:05.817Z,49.60
2023-09-04T17:25:51.328Z,50.28
2023-09-04T17:28:36.833Z,50.42
2023-09-04T17:31:22.192Z,50.74
2023-09-04T17:34:07.646Z,50.99
2023-09-04T17:36:53.518Z,51.43
2023-09-04T17:39:38.993Z,51.58
2023-09-04T17:42:24.523Z,52.10
2023-09-04T17:45:10.323Z,52.47
2023-09-04T17:47:56.302Z,53.02
2023-09-04T17:50:43.547Z,53.50
2023-09-04T17:53:29.073Z,53.86
2023-09-04T17:56:14.786Z,54.01
2023-09-04T17:59:00.294Z,54.34
2023-09-04T18:01:45.879Z,54.43
2023-09-04T18:04:31.288Z,54.84
2023-09-04T18:07:16.592Z,55.05
2023-09-04T18:10:02.075Z,54.98
2023-09-04T18:12:47.603Z,55.21
2023-09-04T18:15:33.498Z,55.50
2023-09-04T18:18:19.120Z,55.58
2023-09-04T18:21:04.639Z,55.82
2023-09-04T18:23:50.871Z,56.20
2023-09-04T18:26:37.940Z,56.23
2023-09-04T18:29:23.193Z,56.50
2023-09-04T18:32:08.962Z,56.99
2023-09-04T18:34:54.321Z,57.10
2023-09-04T18:37:39.912Z,57.35
2023-09-04T18:40:25.880Z,57.31
2023-09-04T18:43:11.365Z,57.65
2023-09-04T18:45:57.983Z,57.79
2023-09-04T18:48:43.349Z,58.33
2023-09-04T18:51:28.750Z,58.61
2023-09-04T18:54:14.614Z,58.98
2023-09-04T18:57:00.124Z,59.06
2023-09-04T18:59:45.562Z,59.10
2023-09-04T19:02:31.141Z,59.34
2023-09-04T19:05:16.767Z,59.68
2023-09-04T19:08:02.537Z,59.42
2023-09-04T19:10:47.874Z,59.55
2023-09-04T19:13:33.877Z,59.65
2023-09-04T19:16:21.787Z,60.06
2023-09-04T19:19:07.557Z,60.24
2023-09-04T19:21:53.106Z,60.22
2023-09-04T19:24:40.478Z,60.77
2023-09-04T19:27:26.650Z,60.94
2023-09-04T19:30:13.806Z,60.89
2023-09-04T19:32:59.552Z,61.20
2023-09-04T19:35:45.183Z,61.29
2023-09-04T19:38:31.277Z,61.42
2023-09-04T19:41:17.004Z,61.32
2023-09-04T19:44:02.638Z,61.74
2023-09-04T19:46:48.426Z,62.21
2023-09-04T19:49:33.636Z,62.11
2023-09-04T19:52:19.181Z,62.27
2023-09-04T19:55:05.316Z,62.40
2023-09-04T19:57:51.353Z,62.53
2023-09-04T20:00:37.035Z,63.03
2023-09-04T20:03:22.520Z,62.43
2023-09-04T20:06:09.914Z,63.26
2023-09-04T20:08:55.616Z,62.78
2023-09-04T20:11:41.203Z,62.95
2023-09-04T20:14:27.390Z,63.05
2023-09-04T20:17:12.761Z,63.44
2023-09-04T20:19:58.356Z,63.15
2023-09-04T20:22:43.773Z,63.19
2023-09-04T20:25:29.374Z,63.34
2023-09-04T20:28:15.215Z,63.54
2023-09-04T20:31:01.054Z,63.34
2023-09-04T20:33:46.683Z,63.27
2023-09-04T20:36:32.305Z,64.11
2023-09-04T20:39:17.966Z,64.17
2023-09-04T20:42:05.207Z,64.07
2023-09-04T20:44:50.823Z,64.02
2023-09-04T20:47:36.655Z,64.71
2023-09-04T20:50:22.317Z,65.06
2023-09-04T20:53:08.152Z,64.40
2023-09-04T20:55:53.905Z,65.01
2023-09-04T20:58:41.555Z,65.45
2023-09-04T21:01:27.244Z,64.97
2023-09-04T21:04:12.868Z,65.13
2023-09-04T21:07:08.634Z,64.92
2023-09-04T21:09:54.033Z,64.57
2023-09-04T21:12:58.094Z,65.11
2023-09-04T21:16:02.195Z,65.58
2023-09-04T21:19:06.233Z,65.75
2023-09-04T21:22:10.372Z,64.96
2023-09-04T21:25:14.271Z,65.96
2023-09-04T21:28:19.496Z,65.56
2023-09-04T21:31:23.436Z,66.50
2023-09-04T21:34:27.534Z,65.66
2023-09-04T21:37:31.590Z,66.33
2023-09-04T21:40:35.616Z,65.85
2023-09-04T21:43:39.481Z,65.83
2023-09-04T21:46:43.398Z,66.42
2023-09-04T21:49:47.414Z,66.92
2023-09-04T21:52:51.561Z,66.96
2023-09-04T21:55:55.673Z,66.08
2023-09-04T21:58:59.771Z,66.75
2023-09-04T22:02:03.795Z,66.70
2023-09-04T22:05:08.100Z,67.12
2023-09-04T22:08:12.158Z,66.89
2023-09-04T22:11:16.177Z,67.13
2023-09-04T22:14:20.257Z,67.23
2023-09-04T22:17:24.425Z,67.45
2023-09-04T22:20:29.063Z,66.96
2023-09-04T22:23:33.062Z,67.68
2023-09-04T22:26:36.976Z,67.63
2023-09-04T22:29:42.842Z,67.60
2023-09-04T22:32:46.952Z,67.75
2023-09-04T22:35:50.788Z,67.64
2023-09-04T22:38:54.835Z,67.66
2023-09-04T22:41:58.898Z,68.19
2023-09-04T22:45:02.833Z,68.12
2023-09-04T22:48:07.201Z,67.83
2023-09-04T22:51:11.126Z,67.54
2023-09-04T22:54:15.140Z,68.57
2023-09-04T22:57:19.123Z,68.08
2023-09-04T23:00:27.202Z,68.45
2023-09-04T23:03:34.680Z,68.49
2023-09-04T23:06:38.664Z,68.09
2023-09-04T23:09:42.734Z,68.28
2023-09-04T23:12:46.748Z,68.65
2023-09-04T23:15:51.163Z,68.81
2023-09-04T23:18:54.978Z,68.91
2023-09-04T23:21:40.547Z,68.89
2023-09-04T23:24:25.953Z,69.23
2023-09-04T23:27:12.939Z,69.02
2023-09-04T23:29:58.794Z,69.15
2023-09-04T23:33:02.683Z,68.98
2023-09-04T23:36:16.744Z,69.83
2023-09-04T23:39:18.077Z,69.82
2023-09-04T23:42:22.751Z,69.94
2023-09-04T23:45:12.101Z,69.75
2023-09-04T23:47:58.309Z,69.70
2023-09-04T23:50:44.223Z,69.77
2023-09-04T23:53:29.819Z,69.60
2023-09-04T23:56:15.119Z,69.88
2023-09-04T23:59:00.383Z,70.30
